createdAt,value
2022-11-22T00:01:25.417Z,97122.50
2022-11-22T00:03:53.651Z,97117.50
2022-11-22T00:06:21.678Z,97114.22
2022-11-22T00:08:51.430Z,97125.63
2022-11-22T00:11:19.631Z,97119.28
2022-11-22T00:13:47.962Z,97121.53
2022-11-22T00:16:16.244Z,97112.72
2022-11-22T00:18:44.547Z,97111.91
2022-11-22T00:21:12.611Z,97117.84
2022-11-22T00:23:40.950Z,97114.38
2022-11-22T00:26:12.369Z,97124.72
2022-11-22T00:28:40.992Z,97127.09
2022-11-22T00:31:08.961Z,97129.59
2022-11-22T00:33:37.264Z,97121.09
2022-11-22T00:36:05.838Z,97127.75
2022-11-22T00:38:34.246Z,97137.59
2022-11-22T00:41:02.433Z,97150.84
2022-11-22T00:43:32.607Z,97148.75
2022-11-22T00:46:00.840Z,97149.84
2022-11-22T00:48:29.581Z,97150.97
2022-11-22T00:50:57.606Z,97160.16
2022-11-22T00:53:26.025Z,97150.13
2022-11-22T00:55:54.159Z,97143.56
2022-11-22T00:58:22.488Z,97146.97
2022-11-22T01:00:56.577Z,97151.97
2022-11-22T01:03:25.285Z,97141.69
2022-11-22T01:05:53.305Z,97141.19
2022-11-22T01:08:21.698Z,97139.28
2022-11-22T01:10:49.767Z,97136.84
2022-11-22T01:13:18.128Z,97122.47
2022-11-22T01:15:46.240Z,97118.13
2022-11-22T01:18:16.143Z,97125.00
2022-11-22T01:20:44.188Z,97123.25
2022-11-22T01:23:12.625Z,97129.81
2022-11-22T01:25:43.865Z,97125.41
2022-11-22T01:28:12.449Z,97129.31
2022-11-22T01:30:42.018Z,97123.06
2022-11-22T01:33:10.750Z,97124.69
2022-11-22T01:35:40.102Z,97119.19
2022-11-22T01:38:08.603Z,97120.94
2022-11-22T01:40:36.901Z,97120.44
2022-11-22T01:43:18.159Z,97120.41
2022-11-22T01:45:52.021Z,97113.03
2022-11-22T01:48:36.856Z,97110.06
2022-11-22T01:51:08.750Z,97106.56
2022-11-22T01:53:38.858Z,97106.84
2022-11-22T01:56:10.284Z,97114.97
2022-11-22T01:58:39.148Z,97105.78
2022-11-22T02:01:07.981Z,97101.47
2022-11-22T02:03:38.857Z,97094.59
2022-11-22T02:06:08.827Z,97095.19
2022-11-22T02:08:41.613Z,97093.13
2022-11-22T02:11:10.925Z,97092.59
2022-11-22T02:13:42.047Z,97089.91
2022-11-22T02:16:10.879Z,97091.25
2022-11-22T02:18:39.682Z,97095.88
2022-11-22T02:21:09.240Z,97085.00
2022-11-22T02:23:47.227Z,97086.53
2022-11-22T02:26:16.656Z,97089.31
2022-11-22T02:28:45.125Z,97083.94
2022-11-22T02:31:34.746Z,97078.25
2022-11-22T02:34:03.398Z,97072.75
2022-11-22T02:36:34.828Z,97083.63
2022-11-22T02:39:03.437Z,97083.03
2022-11-22T02:41:33.278Z,97076.06
2022-11-22T02:44:01.685Z,97077.13
2022-11-22T02:46:29.675Z,97073.03
2022-11-22T02:48:58.034Z,97077.63
2022-11-22T02:51:26.619Z,97074.38
2022-11-22T02:53:56.903Z,97069.25
2022-11-22T02:56:25.004Z,97067.34
2022-11-22T02:58:54.757Z,97064.75
2022-11-22T03:01:22.823Z,97057.91
2022-11-22T03:03:51.172Z,97064.69
2022-11-22T03:06:19.386Z,97069.56
2022-11-22T03:08:53.149Z,97070.91
2022-11-22T03:11:24.253Z,97077.09
2022-11-22T03:13:54.069Z,97070.91
2022-11-22T03:16:22.278Z,97076.81
2022-11-22T03:18:50.669Z,97070.88
2022-11-22T03:21:18.752Z,97067.59
2022-11-22T03:23:47.074Z,97058.41
2022-11-22T03:26:15.183Z,97055.16
2022-11-22T03:28:43.427Z,97058.91
2022-11-22T03:31:12.870Z,97050.84
2022-11-22T03:33:41.216Z,97055.38
2022-11-22T03:36:09.238Z,97052.94
2022-11-22T03:38:37.643Z,97049.63
2022-11-22T03:41:05.961Z,97053.41
2022-11-22T03:43:34.482Z,97060.41
2022-11-22T03:46:02.553Z,97052.22
2022-11-22T03:48:32.533Z,97053.06
2022-11-22T03:51:05.582Z,97055.94
2022-11-22T03:53:34.627Z,97049.69
2022-11-22T03:56:02.862Z,97053.00
2022-11-22T03:58:31.222Z,97054.66
2022-11-22T04:00:59.604Z,97053.50
2022-11-22T04:03:28.088Z,97059.13
2022-11-22T04:05:57.675Z,97059.59
2022-11-22T04:08:26.159Z,97060.28
2022-11-22T04:10:54.319Z,97062.31
2022-11-22T04:13:42.857Z,97055.16
2022-11-22T04:16:09.973Z,97062.34
2022-11-22T04:18:38.377Z,97046.47
2022-11-22T04:21:25.112Z,97052.56
2022-11-22T04:24:07.632Z,97045.41
2022-11-22T04:26:35.721Z,97044.19
2022-11-22T04:29:11.323Z,97047.53
2022-11-22T04:31:57.091Z,97046.25
2022-11-22T04:34:25.368Z,97044.81
2022-11-22T04:36:54.929Z,97050.91
2022-11-22T04:39:23.345Z,97050.97
2022-11-22T04:42:13.841Z,97038.88
2022-11-22T04:44:41.905Z,97047.25
2022-11-22T04:47:10.372Z,97040.81
2022-11-22T04:49:39.034Z,97038.25
2022-11-22T04:52:25.950Z,97040.75
2022-11-22T04:54:54.238Z,97042.31
2022-11-22T04:57:22.449Z,97045.72
2022-11-22T04:59:50.895Z,97042.56
2022-11-22T05:02:18.923Z,97037.50
2022-11-22T05:04:50.655Z,97047.56
2022-11-22T05:07:20.489Z,97035.03
2022-11-22T05:09:48.861Z,97041.75
2022-11-22T05:12:16.963Z,97028.97
2022-11-22T05:14:45.335Z,97038.47
2022-11-22T05:17:13.880Z,97033.44
2022-11-22T05:19:47.819Z,97035.59
2022-11-22T05:22:17.791Z,97033.72
2022-11-22T05:24:46.673Z,97034.69
2022-11-22T05:27:14.720Z,97043.41
2022-11-22T05:29:43.167Z,97037.88
2022-11-22T05:32:11.272Z,97042.13
2022-11-22T05:34:39.708Z,97044.91
2022-11-22T05:37:07.843Z,97042.94
2022-11-22T05:39:36.433Z,97042.28
2022-11-22T05:42:06.063Z,97044.06
2022-11-22T05:44:34.480Z,97053.69
2022-11-22T05:47:02.449Z,97046.66
2022-11-22T05:49:31.168Z,97038.16
2022-11-22T05:51:59.555Z,97055.97
2022-11-22T05:54:28.042Z,97043.75
2022-11-22T05:56:56.075Z,97047.72
2022-11-22T05:59:25.885Z,97052.88
2022-11-22T06:01:53.975Z,97054.88
2022-11-22T06:04:22.551Z,97051.56
2022-11-22T06:06:50.612Z,97058.81
2022-11-22T06:09:19.001Z,97054.53
2022-11-22T06:11:48.362Z,97058.16
2022-11-22T06:14:16.660Z,97061.34
2022-11-22T06:16:46.053Z,97060.13
2022-11-22T06:19:14.417Z,97062.56
2022-11-22T06:21:42.597Z,97070.75
2022-11-22T06:24:11.425Z,97065.47
2022-11-22T06:26:39.833Z,97065.06
2022-11-22T06:29:08.266Z,97060.19
2022-11-22T06:31:37.147Z,97057.75
2022-11-22T06:34:06.952Z,97059.38
2022-11-22T06:36:36.450Z,97066.53
2022-11-22T06:39:05.491Z,97072.22
2022-11-22T06:41:35.036Z,97077.50
2022-11-22T06:44:06.537Z,97074.25
2022-11-22T06:46:34.524Z,97073.94
2022-11-22T06:49:03.385Z,97078.63
2022-11-22T06:51:33.323Z,97080.72
2022-11-22T06:54:02.176Z,97085.44
2022-11-22T06:56:31.731Z,97081.50
2022-11-22T06:59:03.134Z,97088.41
2022-11-22T07:01:32.225Z,97083.47
2022-11-22T07:04:01.471Z,97087.63
2022-11-22T07:06:31.218Z,97081.47
2022-11-22T07:09:01.620Z,97082.66
2022-11-22T07:11:31.296Z,97088.03
2022-11-22T07:14:07.074Z,97094.66
2022-11-22T07:16:37.683Z,97083.47
2022-11-22T07:19:06.081Z,97083.13
2022-11-22T07:21:34.319Z,97080.38
2022-11-22T07:24:05.622Z,97085.06
2022-11-22T07:26:34.046Z,97089.03
2022-11-22T07:29:02.384Z,97077.50
2022-11-22T07:31:30.633Z,97087.38
2022-11-22T07:33:59.000Z,97094.59
2022-11-22T07:36:29.643Z,97096.47
2022-11-22T07:38:58.253Z,97091.44
2022-11-22T07:41:27.760Z,97100.88
2022-11-22T07:43:56.022Z,97093.81
2022-11-22T07:46:26.455Z,97083.63
2022-11-22T07:48:54.597Z,97084.59
2022-11-22T07:51:22.951Z,97078.31
2022-11-22T07:53:51.054Z,97072.47
2022-11-22T07:56:19.841Z,97074.78
2022-11-22T07:58:49.463Z,97077.66
2022-11-22T08:01:19.299Z,97068.47
2022-11-22T08:03:47.587Z,97078.22
2022-11-22T08:06:16.816Z,97080.75
2022-11-22T08:08:44.954Z,97081.06
2022-11-22T08:11:13.820Z,97074.75
2022-11-22T08:13:42.560Z,97078.44
2022-11-22T08:16:14.013Z,97071.34
2022-11-22T08:18:43.280Z,97077.41
2022-11-22T08:21:14.505Z,97072.88
2022-11-22T08:23:43.531Z,97069.31
2022-11-22T08:26:13.417Z,97061.50
2022-11-22T08:28:42.219Z,97055.53
2022-11-22T08:31:13.936Z,97063.16
2022-11-22T08:33:41.929Z,97066.41
2022-11-22T08:36:10.563Z,97071.63
2022-11-22T08:38:38.883Z,97062.97
2022-11-22T08:41:07.757Z,97063.13
2022-11-22T08:43:35.914Z,97060.47
2022-11-22T08:46:04.762Z,97059.97
2022-11-22T08:48:35.803Z,97059.38
2022-11-22T08:51:04.780Z,97054.78
2022-11-22T08:53:33.848Z,97055.63
2022-11-22T08:56:03.074Z,97057.72
2022-11-22T08:58:31.296Z,97067.41
2022-11-22T09:01:05.427Z,97060.75
2022-11-22T09:03:35.735Z,97062.75
2022-11-22T09:09:08.603Z,97057.09
2022-11-22T09:11:41.882Z,97061.81
2022-11-22T09:14:10.235Z,97057.53
2022-11-22T09:16:38.668Z,97052.19
2022-11-22T09:19:08.206Z,97054.19
2022-11-22T09:21:36.827Z,97048.31
2022-11-22T09:24:05.394Z,97055.72
2022-11-22T09:26:33.764Z,97048.66
2022-11-22T09:29:01.846Z,97042.78
2022-11-22T09:31:32.457Z,97041.72
2022-11-22T09:34:00.975Z,97041.16
2022-11-22T09:36:31.028Z,97045.53
2022-11-22T09:38:59.675Z,97045.28
2022-11-22T09:42:05.564Z,97052.94
2022-11-22T09:44:43.343Z,97042.31
2022-11-22T09:47:20.257Z,97032.00
2022-11-22T09:49:54.696Z,97039.84
2022-11-22T09:52:28.706Z,97041.91
2022-11-22T09:54:58.710Z,97032.44
2022-11-22T09:57:29.596Z,97039.53
2022-11-22T10:00:05.163Z,97033.38
2022-11-22T10:02:58.839Z,97038.44
2022-11-22T10:05:27.882Z,97038.38
2022-11-22T10:08:02.740Z,97036.66
2022-11-22T10:10:35.778Z,97038.56
2022-11-22T10:13:07.510Z,97032.63
2022-11-22T10:15:42.960Z,97034.06
2022-11-22T10:18:17.413Z,97032.34
2022-11-22T10:20:48.812Z,97031.69
2022-11-22T10:23:22.109Z,97027.66
2022-11-22T10:25:56.135Z,97018.53
2022-11-22T10:28:30.997Z,97031.53
2022-11-22T10:31:03.690Z,97014.19
2022-11-22T10:33:42.853Z,97015.16
2022-11-22T10:36:25.426Z,97005.56
2022-11-22T10:39:14.014Z,97002.94
2022-11-22T10:41:48.200Z,97005.88
2022-11-22T10:44:24.968Z,97006.72
2022-11-22T10:46:58.599Z,97001.69
2022-11-22T10:49:37.924Z,97000.56
2022-11-22T10:52:13.732Z,96997.63
2022-11-22T10:54:50.224Z,96993.50
2022-11-22T10:57:24.408Z,96996.53
2022-11-22T10:59:59.623Z,96990.50
2022-11-22T11:03:00.797Z,96987.69
2022-11-22T11:05:33.576Z,96992.00
2022-11-22T11:08:22.158Z,96979.34
2022-11-22T11:10:51.921Z,96974.25
2022-11-22T11:13:23.442Z,96975.22
2022-11-22T11:15:56.200Z,96973.59
2022-11-22T11:18:28.807Z,96979.13
2022-11-22T11:20:57.164Z,96972.72
2022-11-22T11:23:25.409Z,96970.63
2022-11-22T11:25:55.251Z,96980.66
2022-11-22T11:28:25.848Z,96976.22
2022-11-22T11:30:56.433Z,96977.94
2022-11-22T11:33:30.035Z,96974.81
2022-11-22T11:36:04.043Z,96989.47
2022-11-22T11:38:34.672Z,96986.81
2022-11-22T11:41:23.557Z,96993.03
2022-11-22T11:43:52.717Z,96989.41
2022-11-22T11:46:22.925Z,96991.41
2022-11-22T11:48:51.865Z,96994.22
2022-11-22T11:51:24.140Z,96998.31
2022-11-22T11:54:01.756Z,96992.22
2022-11-22T11:56:34.745Z,96998.22
2022-11-22T11:59:08.368Z,97004.25
2022-11-22T12:01:39.012Z,96994.47
2022-11-22T12:04:08.419Z,96990.78
2022-11-22T12:06:36.715Z,97005.09
2022-11-22T12:09:29.041Z,96990.34
2022-11-22T12:12:02.476Z,96992.09
2022-11-22T12:14:55.469Z,96983.81
2022-11-22T12:17:25.208Z,96987.28
2022-11-22T12:20:00.199Z,96987.41
2022-11-22T12:22:50.814Z,96983.88
2022-11-22T12:25:34.739Z,96988.56
2022-11-22T12:28:17.432Z,96987.97
2022-11-22T12:30:46.702Z,96981.38
2022-11-22T12:33:19.361Z,96978.84
2022-11-22T12:35:48.685Z,96977.47
2022-11-22T12:38:19.342Z,96969.44
2022-11-22T12:40:49.613Z,96971.53
2022-11-22T12:43:23.885Z,96976.69
2022-11-22T12:45:54.035Z,96972.44
2022-11-22T12:48:24.407Z,96973.72
2022-11-22T12:50:54.726Z,96974.63
2022-11-22T12:53:26.123Z,96966.16
2022-11-22T12:55:59.716Z,96970.41
2022-11-22T12:58:34.861Z,96967.97
2022-11-22T13:01:10.111Z,96962.03
2022-11-22T13:03:41.256Z,96960.44
2022-11-22T13:06:10.314Z,96956.50
2022-11-22T13:08:42.490Z,96974.09
2022-11-22T13:11:16.387Z,96971.53
2022-11-22T13:13:49.191Z,96959.28
2022-11-22T13:16:18.283Z,96964.88
2022-11-22T13:18:49.620Z,96957.78
2022-11-22T13:21:24.066Z,96954.78
2022-11-22T13:24:10.135Z,96954.41
2022-11-22T13:26:44.325Z,96950.22
2022-11-22T13:29:23.343Z,96943.94
2022-11-22T13:32:06.059Z,96944.53
2022-11-22T13:34:36.266Z,96944.56
2022-11-22T13:37:09.735Z,96947.16
2022-11-22T13:39:43.791Z,96939.25
2022-11-22T13:42:15.365Z,96939.59
2022-11-22T13:44:53.725Z,96934.44
2022-11-22T13:47:39.649Z,96937.53
2022-11-22T13:50:53.613Z,96946.09
2022-11-22T13:53:25.839Z,96940.63
2022-11-22T13:55:54.286Z,96941.91
2022-11-22T13:58:55.198Z,96931.91
2022-11-22T14:01:56.379Z,96932.63
2022-11-22T14:04:36.513Z,96938.56
2022-11-22T14:07:07.532Z,96935.38
2022-11-22T14:09:39.432Z,96927.66
2022-11-22T14:12:25.082Z,96936.00
2022-11-22T14:15:11.086Z,96937.66
2022-11-22T14:17:44.828Z,96945.16
2022-11-22T14:20:29.141Z,96945.06
2022-11-22T14:23:01.264Z,96941.31
2022-11-22T14:25:48.710Z,96950.72
2022-11-22T14:28:30.537Z,96960.22
2022-11-22T14:30:58.998Z,96958.16
2022-11-22T14:33:28.630Z,96956.50
2022-11-22T14:36:17.737Z,96956.66
2022-11-22T14:38:46.418Z,96963.78
2022-11-22T14:41:43.518Z,96958.13
2022-11-22T14:44:16.208Z,96955.97
2022-11-22T14:46:55.774Z,96955.78
2022-11-22T14:49:33.216Z,96962.31
2022-11-22T14:52:03.174Z,96955.28
2022-11-22T14:54:39.034Z,96952.06
2022-11-22T14:57:08.448Z,96963.72
2022-11-22T14:59:57.171Z,96971.59
2022-11-22T15:03:03.631Z,96961.50
2022-11-22T15:09:12.288Z,96979.25
2022-11-22T15:09:23.220Z,96966.44
2022-11-22T15:11:40.952Z,96976.16
2022-11-22T15:14:25.805Z,96973.94
2022-11-22T15:57:28.687Z,96991.22
2022-11-22T15:59:58.632Z,96999.94
2022-11-22T16:02:31.118Z,96995.81
2022-11-22T16:06:04.368Z,96998.88
2022-11-22T16:07:52.521Z,96997.50
2022-11-22T16:10:22.348Z,96999.72
2022-11-22T16:12:51.356Z,96986.91
2022-11-22T16:15:25.564Z,96992.56
2022-11-22T16:17:59.399Z,97000.06
2022-11-22T16:20:33.894Z,96995.09
2022-11-22T16:23:15.998Z,96993.06
2022-11-22T16:25:45.643Z,96995.13
2022-11-22T16:28:35.392Z,96998.09
2022-11-22T16:31:07.604Z,96996.56
2022-11-22T16:33:36.092Z,97002.91
2022-11-22T16:36:07.061Z,97002.97
2022-11-22T16:38:35.553Z,97007.13
2022-11-22T16:41:03.729Z,97007.72
2022-11-22T16:43:35.681Z,97011.34
2022-11-22T16:46:05.183Z,97012.13
2022-11-22T16:48:33.925Z,97015.25
2022-11-22T16:51:07.045Z,97019.50
2022-11-22T16:53:42.171Z,97014.28
2022-11-22T16:56:16.589Z,97019.53
2022-11-22T16:58:45.316Z,97026.34
2022-11-22T17:01:16.253Z,97022.44
2022-11-22T17:03:45.085Z,97019.91
2022-11-22T17:06:18.745Z,97026.56
2022-11-22T17:08:47.544Z,97022.66
2022-11-22T17:11:17.313Z,97022.88
2022-11-22T17:13:46.294Z,97017.63
2022-11-22T17:16:17.818Z,97033.44
2022-11-22T17:18:47.707Z,97035.47
2022-11-22T17:21:19.290Z,97032.25
2022-11-22T17:23:47.711Z,97033.94
2022-11-22T17:26:15.878Z,97024.69
2022-11-22T17:28:44.373Z,97025.38
2022-11-22T17:31:13.856Z,97019.78
2022-11-22T17:33:43.756Z,97033.72
2022-11-22T17:36:21.361Z,97022.72
2022-11-22T17:38:49.719Z,97023.03
2022-11-22T17:41:17.987Z,97022.72
2022-11-22T17:43:46.410Z,97026.53
2022-11-22T17:46:15.203Z,97028.66
2022-11-22T17:48:45.096Z,97030.63
2022-11-22T17:51:14.243Z,97028.78
2022-11-22T17:53:42.718Z,97038.44
2022-11-22T17:56:11.634Z,97035.47
2022-11-22T17:58:40.586Z,97038.47
2022-11-22T18:01:10.709Z,97043.84
2022-11-22T18:03:39.665Z,97045.16
2022-11-22T18:06:10.436Z,97046.84
2022-11-22T18:08:45.220Z,97049.09
2022-11-22T18:11:15.267Z,97052.91
2022-11-22T18:13:43.901Z,97057.00
2022-11-22T18:16:14.536Z,97058.19
2022-11-22T18:18:58.651Z,97055.84
2022-11-22T18:21:30.220Z,97055.84
2022-11-22T18:23:59.353Z,97060.88
2022-11-22T18:26:43.139Z,97060.56
2022-11-22T18:32:01.080Z,97058.66
2022-11-22T18:34:30.750Z,97055.91
2022-11-22T18:37:03.631Z,97045.47
2022-11-22T18:39:35.283Z,97042.38
2022-11-22T18:42:04.161Z,97054.31
2022-11-22T18:44:32.596Z,97054.09
2022-11-22T18:47:00.794Z,97053.72
2022-11-22T18:49:29.795Z,97051.47
2022-11-22T18:51:58.341Z,97047.94
2022-11-22T18:54:28.144Z,97047.25
2022-11-22T18:56:56.231Z,97054.41
2022-11-22T18:59:24.649Z,97052.81
2022-11-22T19:01:52.850Z,97052.69
2022-11-22T19:04:21.241Z,97046.09
2022-11-22T19:06:49.370Z,97046.88
2022-11-22T19:09:17.661Z,97048.69
2022-11-22T19:11:47.372Z,97049.25
2022-11-22T19:14:15.728Z,97046.91
2022-11-22T19:16:44.130Z,97046.03
2022-11-22T19:19:13.182Z,97050.44
2022-11-22T19:21:41.537Z,97044.94
2022-11-22T19:24:10.060Z,97050.41
2022-11-22T19:26:38.569Z,97043.63
2022-11-22T19:29:08.859Z,97046.69
2022-11-22T19:31:37.393Z,97044.06
2022-11-22T19:34:05.884Z,97044.72
2022-11-22T19:36:36.354Z,97047.06
2022-11-22T19:39:05.607Z,97052.16
2022-11-22T19:41:34.266Z,97045.06
2022-11-22T19:44:03.188Z,97048.16
2022-11-22T19:46:33.205Z,97065.84
2022-11-22T19:49:02.503Z,97063.69
2022-11-22T19:51:32.043Z,97065.47
2022-11-22T19:54:02.301Z,97068.16
2022-11-22T19:56:32.893Z,97083.09
2022-11-22T19:59:02.759Z,97084.41
2022-11-22T20:01:34.823Z,97074.91
2022-11-22T20:04:07.726Z,97085.25
2022-11-22T20:06:38.390Z,97076.94
2022-11-22T20:09:09.285Z,97096.19
2022-11-22T20:11:38.188Z,97091.81
2022-11-22T20:14:06.628Z,97092.19
2022-11-22T20:16:37.563Z,97096.19
2022-11-22T20:19:07.077Z,97085.50
2022-11-22T20:21:36.672Z,97090.41
2022-11-22T20:24:06.267Z,97087.56
2022-11-22T20:26:35.021Z,97088.91
2022-11-22T20:29:05.089Z,97085.66
2022-11-22T20:31:35.048Z,97080.38
2022-11-22T20:34:04.775Z,97091.69
2022-11-22T20:36:35.150Z,97098.53
2022-11-22T20:39:08.589Z,97098.81
2022-11-22T20:41:39.135Z,97098.44
2022-11-22T20:44:07.589Z,97107.56
2022-11-22T20:46:37.894Z,97105.47
2022-11-22T20:49:07.994Z,97113.16
2022-11-22T20:51:39.656Z,97117.50
2022-11-22T20:54:08.130Z,97116.56
2022-11-22T20:56:36.774Z,97103.41
2022-11-22T20:59:05.090Z,97110.41
2022-11-22T21:01:33.688Z,97105.03
2022-11-22T21:04:02.060Z,97117.47
2022-11-22T21:06:32.938Z,97108.78
2022-11-22T21:09:01.130Z,97113.94
2022-11-22T21:11:31.062Z,97107.97
2022-11-22T21:13:59.593Z,97111.19
2022-11-22T21:16:29.616Z,97102.41
2022-11-22T21:18:59.467Z,97108.25
2022-11-22T21:21:28.497Z,97103.56
2022-11-22T21:24:00.940Z,97106.94
2022-11-22T21:26:29.908Z,97104.44
2022-11-22T21:28:59.483Z,97111.84
2022-11-22T21:31:28.572Z,97119.59
2022-11-22T21:33:56.797Z,97124.66
2022-11-22T21:36:25.261Z,97117.88
2022-11-22T21:38:53.327Z,97111.88
2022-11-22T21:41:39.407Z,97119.97
2022-11-22T21:44:08.966Z,97125.13
2022-11-22T21:46:37.438Z,97117.88
2022-11-22T21:49:05.585Z,97110.25
2022-11-22T21:51:33.985Z,97123.88
2022-11-22T21:54:03.131Z,97118.38
2022-11-22T21:56:33.153Z,97117.88
2022-11-22T21:59:01.379Z,97117.75
2022-11-22T22:01:30.089Z,97107.28
2022-11-22T22:03:58.342Z,97114.19
2022-11-22T22:06:26.832Z,97114.13
2022-11-22T22:08:55.198Z,97119.91
2022-11-22T22:11:23.794Z,97119.63
2022-11-22T22:13:55.306Z,97126.66
2022-11-22T22:16:26.090Z,97126.38
2022-11-22T22:18:54.614Z,97128.75
2022-11-22T22:21:23.229Z,97133.63
2022-11-22T22:23:51.415Z,97130.19
2022-11-22T22:26:19.979Z,97122.91
2022-11-22T22:28:48.186Z,97124.81
2022-11-22T22:31:21.968Z,97122.13
2022-11-22T22:33:51.500Z,97127.25
2022-11-22T22:36:20.356Z,97133.47
2022-11-22T22:38:48.740Z,97123.69
2022-11-22T22:41:17.642Z,97131.00
2022-11-22T22:43:48.723Z,97132.63
2022-11-22T22:46:18.926Z,97133.78
2022-11-22T22:48:48.017Z,97135.59
2022-11-22T22:51:18.144Z,97140.69
2022-11-22T22:53:47.035Z,97133.66
2022-11-22T22:56:17.708Z,97133.94
2022-11-22T22:58:46.095Z,97147.56
2022-11-22T23:01:15.991Z,97140.50
2022-11-22T23:03:48.523Z,97141.25
2022-11-22T23:06:17.450Z,97143.22
2022-11-22T23:08:47.251Z,97139.72
2022-11-22T23:11:16.405Z,97144.59
2022-11-22T23:13:44.930Z,97142.97
2022-11-22T23:16:14.802Z,97140.81
2022-11-22T23:18:45.907Z,97141.59
2022-11-22T23:21:15.757Z,97136.22
2022-11-22T23:23:44.000Z,97135.13
2022-11-22T23:26:13.945Z,97135.94
2022-11-22T23:28:42.270Z,97132.94
2022-11-22T23:31:15.484Z,97127.78
2022-11-22T23:33:45.768Z,97124.56
2022-11-22T23:36:15.864Z,97126.13
2022-11-22T23:38:44.442Z,97132.59
2022-11-22T23:41:13.576Z,97126.69
2022-11-22T23:43:42.545Z,97123.47
2022-11-22T23:46:16.199Z,97126.72
2022-11-22T23:48:46.399Z,97124.00
2022-11-22T23:51:15.684Z,97119.34
2022-11-22T23:53:43.855Z,97115.22
2022-11-22T23:56:18.992Z,97116.38
2022-11-22T23:58:49.967Z,97122.00
